createdAt,value
2022-07-28T04:30:55.026Z,7.53
2022-07-28T04:35:57.110Z,7.70
2022-07-28T04:40:59.116Z,7.68
2022-07-28T04:46:01.162Z,8.90
2022-07-28T04:51:03.319Z,8.07
2022-07-28T04:56:05.653Z,8.77
2022-07-28T05:01:07.686Z,8.35
2022-07-28T05:06:09.687Z,7.97
2022-07-28T05:11:11.696Z,8.00
2022-07-28T05:16:13.805Z,7.97
2022-07-28T05:21:15.915Z,8.07
2022-07-28T05:26:24.914Z,8.82
2022-07-28T05:31:27.048Z,9.30
2022-07-28T05:36:29.084Z,8.00
2022-07-28T05:41:31.061Z,8.15
2022-07-28T05:46:33.375Z,8.13
2022-07-28T05:51:41.232Z,8.70
2022-07-28T05:56:47.095Z,8.10
2022-07-28T06:01:52.116Z,8.30
2022-07-28T06:06:54.100Z,8.50
2022-07-28T06:11:56.254Z,7.80
2022-07-28T06:16:58.332Z,8.25
2022-07-28T06:22:00.494Z,7.63
2022-07-28T06:27:03.109Z,7.45
2022-07-28T06:32:05.699Z,8.02
2022-07-28T06:37:07.688Z,8.18
2022-07-28T06:42:09.667Z,7.72
2022-07-28T06:47:11.706Z,7.30
2022-07-28T06:52:13.682Z,7.82
2022-07-28T06:57:15.675Z,6.63
2022-07-28T07:02:19.312Z,6.35
2022-07-28T07:07:22.618Z,7.15
2022-07-28T07:12:24.707Z,6.47
2022-07-28T07:17:26.656Z,6.63
2022-07-28T07:22:28.653Z,6.70
2022-07-28T07:27:30.600Z,5.95
2022-07-28T07:32:32.781Z,6.43
2022-07-28T07:37:35.071Z,6.10
2022-07-28T07:42:37.700Z,5.85
2022-07-28T07:47:39.774Z,5.40
2022-07-28T07:52:41.907Z,6.32
2022-07-28T07:57:44.708Z,5.75
2022-07-28T08:02:47.110Z,5.43
2022-07-28T08:07:49.065Z,5.82
2022-07-28T08:12:51.067Z,5.18
2022-07-28T08:17:53.121Z,5.38
2022-07-28T08:22:57.180Z,4.82
2022-07-28T08:27:59.140Z,4.78
2022-07-28T08:33:02.782Z,5.15
2022-07-28T08:38:06.211Z,4.78
2022-07-28T08:43:26.354Z,5.25
2022-07-28T08:48:33.264Z,5.22
2022-07-28T08:53:38.191Z,4.90
2022-07-28T08:58:40.299Z,4.40
2022-07-28T09:03:42.838Z,3.97
2022-07-28T09:08:44.899Z,3.97
2022-07-28T09:13:50.889Z,4.90
2022-07-28T09:18:55.622Z,4.25
2022-07-28T09:23:58.319Z,4.20
2022-07-28T09:29:02.378Z,4.25
2022-07-28T09:34:05.761Z,4.10
2022-07-28T09:39:08.426Z,3.72
2022-07-28T09:44:19.916Z,4.05
2022-07-28T09:49:45.056Z,4.10
2022-07-28T09:55:06.514Z,4.32
2022-07-28T10:00:25.015Z,4.00
2022-07-28T10:05:40.822Z,3.47
2022-07-28T10:10:42.919Z,3.65
2022-07-28T10:16:10.824Z,3.67
2022-07-28T10:21:16.903Z,3.38
2022-07-28T10:26:28.846Z,3.40
2022-07-28T10:31:58.717Z,3.25
2022-07-28T10:37:05.208Z,3.00
2022-07-28T10:42:12.481Z,3.33
2022-07-28T10:47:18.364Z,3.95
2022-07-28T10:52:47.308Z,3.20
2022-07-28T10:58:11.609Z,2.85
2022-07-28T11:03:44.331Z,3.20
2022-07-28T11:08:47.609Z,2.72
2022-07-28T11:13:50.405Z,2.45
2022-07-28T11:19:41.955Z,2.53
2022-07-28T11:24:58.037Z,2.75
2022-07-28T11:30:00.416Z,2.90
2022-07-28T11:35:10.250Z,2.60
2022-07-28T11:40:46.340Z,2.78
2022-07-28T11:45:56.345Z,2.05
2022-07-28T11:51:04.802Z,2.33
2022-07-28T11:56:12.510Z,2.25
2022-07-28T12:01:20.021Z,1.80
2022-07-28T12:06:29.323Z,2.45
2022-07-28T12:11:42.877Z,2.10
2022-07-28T12:16:46.250Z,2.03
2022-07-28T12:21:55.698Z,1.88
2022-07-28T12:27:03.484Z,2.13
2022-07-28T12:32:09.760Z,2.10
2022-07-28T12:37:14.059Z,1.95
2022-07-28T12:42:16.288Z,2.25
2022-07-28T12:47:28.045Z,2.42
2022-07-28T12:52:30.040Z,2.50
2022-07-28T12:57:50.315Z,2.47
2022-07-28T13:02:58.411Z,2.45
2022-07-28T13:08:05.883Z,2.20
2022-07-28T13:13:08.231Z,2.25
2022-07-28T13:18:10.360Z,2.42
2022-07-28T13:23:12.303Z,2.05
2022-07-28T13:28:27.598Z,2.33
2022-07-28T13:33:29.779Z,2.17
2022-07-28T13:38:32.993Z,2.15
2022-07-28T13:43:36.240Z,2.35
2022-07-28T13:49:00.090Z,2.28
2022-07-28T13:54:02.429Z,2.03
2022-07-28T13:59:09.739Z,2.50
2022-07-28T14:04:17.420Z,2.63
2022-07-28T14:09:21.431Z,2.30
2022-07-28T14:14:25.161Z,2.00
2022-07-28T14:19:38.356Z,2.33
2022-07-28T14:24:44.747Z,2.45
2022-07-28T14:29:46.950Z,2.30
2022-07-28T14:34:48.934Z,2.00
2022-07-28T14:39:51.611Z,2.25
2022-07-28T14:44:53.757Z,2.05
2022-07-28T14:49:58.138Z,2.10
2022-07-28T14:55:00.810Z,1.88
2022-07-28T15:00:06.783Z,2.45
2022-07-28T15:05:09.909Z,2.45
2022-07-28T15:10:11.874Z,2.10
2022-07-28T15:15:14.221Z,1.77
2022-07-28T15:20:16.378Z,2.00
2022-07-28T15:25:18.388Z,2.20
2022-07-28T15:30:20.487Z,2.67
2022-07-28T15:35:23.271Z,2.28
2022-07-28T15:40:25.326Z,2.17
2022-07-28T15:45:27.651Z,2.20
2022-07-28T15:50:30.323Z,2.63
2022-07-28T15:55:32.315Z,2.40
2022-07-28T16:00:35.074Z,2.53
2022-07-28T16:05:37.049Z,2.22
2022-07-28T16:10:38.948Z,2.10
2022-07-28T16:15:41.601Z,2.10
2022-07-28T16:20:45.269Z,2.10
2022-07-28T16:25:47.206Z,2.15
2022-07-28T16:30:49.262Z,2.50
2022-07-28T16:35:52.315Z,2.55
2022-07-28T16:40:57.217Z,2.13
2022-07-28T16:45:59.233Z,2.15
2022-07-28T16:51:02.771Z,2.42
2022-07-28T16:56:05.176Z,2.35
2022-07-28T17:01:08.738Z,2.60
2022-07-28T17:06:10.813Z,2.55
2022-07-28T17:11:12.739Z,2.30
2022-07-28T17:16:14.882Z,2.65
2022-07-28T17:21:17.941Z,2.38
2022-07-28T17:31:43.395Z,2.70
2022-07-28T17:36:45.686Z,2.47
2022-07-28T17:41:47.628Z,2.45
2022-07-28T17:46:50.737Z,2.70
2022-07-28T17:51:52.751Z,2.42
2022-07-28T17:56:56.664Z,2.72
2022-07-28T18:01:58.658Z,2.95
2022-07-28T18:07:00.644Z,2.40
2022-07-28T18:12:02.713Z,2.40
2022-07-28T18:17:04.639Z,2.58
2022-07-28T18:22:06.846Z,2.50
2022-07-28T18:27:08.755Z,2.80
2022-07-28T18:32:12.168Z,2.90
2022-07-28T18:37:14.128Z,3.00
2022-07-28T18:42:16.108Z,3.15
2022-07-28T18:47:18.313Z,2.88
2022-07-28T18:52:20.513Z,2.83
2022-07-28T18:57:22.531Z,2.65
2022-07-28T19:02:26.564Z,2.63
2022-07-28T19:07:28.890Z,2.78
2022-07-28T19:12:31.480Z,2.65
2022-07-28T19:17:34.061Z,2.30
2022-07-28T19:22:40.707Z,2.92
